sensor_id;sensor_type;location;lat;lon;timestamp;pressure;altitude;pressure_sealevel;temperature;humidity
63946;BME280;50122;56.330;43.838;2023-05-29T00:00:47;100448.09;;;8.32;95.35
63946;BME280;50122;56.330;43.838;2023-05-29T00:03:13;100446.47;;;8.28;94.85
63946;BME280;50122;56.330;43.838;2023-05-29T00:05:40;100438.69;;;8.23;95.01
63946;BME280;50122;56.330;43.838;2023-05-29T00:08:08;100438.75;;;8.22;95.38
63946;BME280;50122;56.330;43.838;2023-05-29T00:10:34;100433.63;;;8.17;95.23
63946;BME280;50122;56.330;43.838;2023-05-29T00:13:03;100435.41;;;8.16;95.56
63946;BME280;50122;56.330;43.838;2023-05-29T00:15:33;100433.56;;;8.18;95.86
63946;BME280;50122;56.330;43.838;2023-05-29T00:18:00;100430.91;;;8.20;96.32
63946;BME280;50122;56.330;43.838;2023-05-29T00:20:28;100429.16;;;8.21;96.31
63946;BME280;50122;56.330;43.838;2023-05-29T00:22:55;100431.56;;;8.27;96.02
63946;BME280;50122;56.330;43.838;2023-05-29T00:25:22;100433.31;;;8.28;96.48
63946;BME280;50122;56.330;43.838;2023-05-29T00:27:48;100414.81;;;8.29;96.22
63946;BME280;50122;56.330;43.838;2023-05-29T00:30:16;100423.47;;;8.33;96.23
63946;BME280;50122;56.330;43.838;2023-05-29T00:32:42;100420.72;;;8.36;96.75
63946;BME280;50122;56.330;43.838;2023-05-29T00:35:09;100420.66;;;8.39;96.69
63946;BME280;50122;56.330;43.838;2023-05-29T00:37:37;100422.22;;;8.45;96.86
63946;BME280;50122;56.330;43.838;2023-05-29T00:40:04;100422.75;;;8.56;97.24
63946;BME280;50122;56.330;43.838;2023-05-29T00:42:31;100424.16;;;8.66;97.75
63946;BME280;50122;56.330;43.838;2023-05-29T00:45:00;100422.91;;;8.78;97.93
63946;BME280;50122;56.330;43.838;2023-05-29T00:47:26;100426.16;;;8.85;97.71
63946;BME280;50122;56.330;43.838;2023-05-29T00:49:55;100420.78;;;8.88;97.44
63946;BME280;50122;56.330;43.838;2023-05-29T00:52:23;100421.44;;;8.95;97.49
63946;BME280;50122;56.330;43.838;2023-05-29T00:54:51;100419.25;;;9.08;97.71
63946;BME280;50122;56.330;43.838;2023-05-29T00:57:18;100419.00;;;9.14;97.03
63946;BME280;50122;56.330;43.838;2023-05-29T00:59:46;100432.72;;;9.24;96.65
63946;BME280;50122;56.330;43.838;2023-05-29T01:02:14;100422.88;;;9.29;96.28
63946;BME280;50122;56.330;43.838;2023-05-29T01:04:44;100430.47;;;9.38;95.60
63946;BME280;50122;56.330;43.838;2023-05-29T01:07:11;100423.34;;;9.40;94.67
63946;BME280;50122;56.330;43.838;2023-05-29T01:09:39;100426.72;;;9.44;94.23
63946;BME280;50122;56.330;43.838;2023-05-29T01:12:19;100422.38;;;9.43;93.19
63946;BME280;50122;56.330;43.838;2023-05-29T01:17:28;100436.03;;;9.54;93.43
63946;BME280;50122;56.330;43.838;2023-05-29T01:28:00;100432.13;;;9.64;91.85
63946;BME280;50122;56.330;43.838;2023-05-29T01:30:30;100433.09;;;9.62;91.59
63946;BME280;50122;56.330;43.838;2023-05-29T01:32:58;100429.47;;;9.64;91.74
63946;BME280;50122;56.330;43.838;2023-05-29T01:35:27;100432.13;;;9.64;91.63
63946;BME280;50122;56.330;43.838;2023-05-29T01:37:54;100430.25;;;9.68;91.85
63946;BME280;50122;56.330;43.838;2023-05-29T01:40:22;100423.88;;;9.73;91.89
63946;BME280;50122;56.330;43.838;2023-05-29T01:42:49;100431.59;;;9.78;92.09
63946;BME280;50122;56.330;43.838;2023-05-29T01:45:16;100432.16;;;9.86;92.24
63946;BME280;50122;56.330;43.838;2023-05-29T01:47:43;100435.56;;;9.90;92.03
63946;BME280;50122;56.330;43.838;2023-05-29T01:50:11;100444.25;;;9.92;91.70
63946;BME280;50122;56.330;43.838;2023-05-29T01:52:40;100446.97;;;9.90;92.06
63946;BME280;50122;56.330;43.838;2023-05-29T01:55:07;100439.09;;;9.89;92.38
63946;BME280;50122;56.330;43.838;2023-05-29T01:57:35;100441.81;;;9.87;92.54
63946;BME280;50122;56.330;43.838;2023-05-29T02:00:03;100455.56;;;9.96;93.06
63946;BME280;50122;56.330;43.838;2023-05-29T02:02:38;100450.47;;;9.91;93.04
63946;BME280;50122;56.330;43.838;2023-05-29T02:05:07;100454.16;;;9.87;93.50
63946;BME280;50122;56.330;43.838;2023-05-29T02:07:35;100456.66;;;9.90;94.53
63946;BME280;50122;56.330;43.838;2023-05-29T02:10:04;100457.63;;;9.87;94.56
63946;BME280;50122;56.330;43.838;2023-05-29T02:12:32;100468.19;;;9.87;94.88
63946;BME280;50122;56.330;43.838;2023-05-29T02:14:59;100455.13;;;9.84;95.30
63946;BME280;50122;56.330;43.838;2023-05-29T02:17:26;100467.41;;;9.85;95.59
63946;BME280;50122;56.330;43.838;2023-05-29T02:19:53;100469.94;;;9.88;96.19
63946;BME280;50122;56.330;43.838;2023-05-29T02:22:19;100470.97;;;9.84;95.70
63946;BME280;50122;56.330;43.838;2023-05-29T02:24:46;100481.34;;;9.89;96.18
63946;BME280;50122;56.330;43.838;2023-05-29T02:27:15;100482.31;;;9.86;96.23
63946;BME280;50122;56.330;43.838;2023-05-29T02:29:42;100469.94;;;9.88;96.74
63946;BME280;50122;56.330;43.838;2023-05-29T02:32:09;100486.56;;;9.90;96.76
63946;BME280;50122;56.330;43.838;2023-05-29T02:34:36;100485.47;;;9.96;96.27
63946;BME280;50122;56.330;43.838;2023-05-29T02:37:03;100489.66;;;10.02;96.65
63946;BME280;50122;56.330;43.838;2023-05-29T02:39:30;100498.09;;;10.12;96.15
63946;BME280;50122;56.330;43.838;2023-05-29T02:41:57;100498.03;;;10.13;96.18
63946;BME280;50122;56.330;43.838;2023-05-29T02:44:23;100508.16;;;10.24;96.59
63946;BME280;50122;56.330;43.838;2023-05-29T02:46:50;100513.16;;;10.32;95.71
63946;BME280;50122;56.330;43.838;2023-05-29T02:49:19;100516.44;;;10.38;95.40
63946;BME280;50122;56.330;43.838;2023-05-29T02:51:45;100518.94;;;10.43;95.27
63946;BME280;50122;56.330;43.838;2023-05-29T02:54:12;100511.72;;;10.47;94.65
63946;BME280;50122;56.330;43.838;2023-05-29T02:56:40;100511.59;;;10.50;94.34
63946;BME280;50122;56.330;43.838;2023-05-29T02:59:07;100525.31;;;10.59;93.63
63946;BME280;50122;56.330;43.838;2023-05-29T03:01:33;100522.66;;;10.59;93.49
63946;BME280;50122;56.330;43.838;2023-05-29T03:04:02;100517.00;;;10.69;93.41
63946;BME280;50122;56.330;43.838;2023-05-29T03:06:29;100527.28;;;10.76;93.27
63946;BME280;50122;56.330;43.838;2023-05-29T03:08:55;100537.34;;;10.89;92.97
63946;BME280;50122;56.330;43.838;2023-05-29T03:11:23;100556.34;;;10.99;92.04
63946;BME280;50122;56.330;43.838;2023-05-29T03:13:51;100556.06;;;11.05;91.69
63946;BME280;50122;56.330;43.838;2023-05-29T03:16:18;100548.69;;;11.13;91.19
63946;BME280;50122;56.330;43.838;2023-05-29T03:18:45;100561.53;;;11.22;90.63
63946;BME280;50122;56.330;43.838;2023-05-29T03:21:12;100557.50;;;11.34;90.23
63946;BME280;50122;56.330;43.838;2023-05-29T03:23:39;100569.34;;;11.46;89.77
63946;BME280;50122;56.330;43.838;2023-05-29T03:26:06;100566.75;;;11.65;89.81
63946;BME280;50122;56.330;43.838;2023-05-29T03:28:32;100571.91;;;11.89;88.66
63946;BME280;50122;56.330;43.838;2023-05-29T03:30:59;100574.25;;;11.96;87.50
63946;BME280;50122;56.330;43.838;2023-05-29T03:33:29;100584.69;;;11.99;86.09
63946;BME280;50122;56.330;43.838;2023-05-29T03:35:55;100576.47;;;11.85;86.59
63946;BME280;50122;56.330;43.838;2023-05-29T03:38:23;100581.75;;;11.85;87.20
